Racecast

Nicklas Huff

Texas-Tyler (TX) · SR-4 · NCAA DIISOUTH CENTRALLONE STAR · Compare head to head

Athlete rating 109.9 2014 TF season
Best race 127.2 XC
Races 69
Seasons 5 2010 — 2014

RankedNation #2287·NCAA DII #423·SOUTH CENTRAL #135·LONE STAR #8·TX #18·Team #2 ?

Rating scale ?

Cross Country

2013 XC 112.0

UT Tyler (TX) · Grade Sr

Date Meet Event Result Place Rating Difficulty PR/SR Flags
2013-11-16 Christopher Newport University Course 8000m 26:04.3 28th · 2nd on team 111.4 -0.132 ★PR ★CR SR CSR
2013-11-02 Sherrod Residential Park 8000m 26:43.8 1st · 1st on team 112.7 -0.099 ★CR CSR
2013-10-19 Christopher Newport University Course 8000m 26:42.7 20th · 2nd on team 108.0 -0.132 CR SR CSR
2013-09-28 Shelby Farms Park 8000m 26:49 16th · 1st on team 108.8 -0.123 ★CR SR CSR
2013-09-04 UT Tyler 5000m 16:17.1 1st · 1st on team 119.0 -0.049 ★PR ★CR SR CSR RSR

2012 XC 118.0

UT Tyler (TX) · Grade Jr

Date Meet Event Result Place Rating Difficulty PR/SR Flags
2012-11-10 Nash Farms Battlefield 8000m 27:00 30th · 1st on team 111.4 -0.098 ★CR CSR
2012-11-10 NCAA Division III South/Southeast Region Cross Country Championships 8000m 27:00.1 30th · 1st on team ★CR CSR
2012-10-27 American Southwest Conference Championships 8000m 26:13 1st · 1st on team 127.2 PR ★CR ★R SR CSR RSR
2012-10-13 University of AR XC course 10000m 34:14.8 170th · 1st on team 109.0 -0.096 ★PR ★CR SR CSR
2012-10-06 Centenary Invitational 8000m 26:45.8 2nd · 1st on team 124.6 PR ★CR R SR CSR RSR
2012-09-29 Grass Routes Run Festival 7500m 26:30.9 8th · 1st on team 117.9 ★PR ★CR R SR CSR RSR

2011 XC 106.9

UT Tyler (TX) · Grade So

Date Meet Event Result Place Rating Difficulty PR/SR Flags
2011-11-12 Texas Lutheran University 8000m 27:41.3 34th · 3rd on team 106.9 -0.117 ★CR SR CSR RSR
2011-09-10 UT Tyler 8000m 27:49.7 7th · 2nd on team -0.076 ★CR SR CSR

2010 XC 104.9

UT Tyler (TX) · Grade Fr

Date Meet Event Result Place Rating Difficulty PR/SR Flags
2010-11-13 Shelby Farms Park 8000m 28:11 99th · 4th on team 103.8 -0.123
2010-10-16 University of AR XC course 10000m 35:01.5 327th · 6th on team 105.6 -0.096 PR CR SR CSR
2010-10-02 Shelby Farms Park 8000m 27:25 20th · 4th on team 107.3 -0.123 PR CR R SR CSR RSR
2010-09-25 Texas Lutheran University 8000m 28:43 13th · 4th on team 102.8 -0.117 PR CR R SR CSR RSR

Track & Field

2014 TF 109.9

Texas-Tyler (TX) · Grade SR-4

Date Meet Event Result Place Rating Difficulty PR/SR Flags
2014-05-09 Meet results → Men's 1500 Meters 3:59.35 7th · 1st on team ★PR SR
2014-04-25 Meet results → Men's 5000 Meters 17:30.54 4th · 4th on team
2014-04-25 Meet results → Men's 3000 Steeplechase 10:06.28 1st · 1st on team SR
2014-04-25 Meet results → Men's 1500 Meters 4:08.53 1st · 1st on team
2014-04-19 Meet results → Men's 1500 Meters 4:02.64 2nd · 1st on team SR
2014-04-12 New Summerfield College Invitational 1500m 4:06.52 1st · 1st on team 109.9 -0.021 ★PR SR RSR
2014-04-04 Meet results → Men's 1500 Meters 4:02.98 12th · 2nd on team SR
2014-04-04 Meet results → Men's 5000 Meters 16:00.05 22nd · 4th on team SR
2014-03-28 Meet results → Men's 5000 Meters 16:20.75 4th · 3rd on team SR
2014-03-28 Meet results → Men's 1500 Meters 4:09.32 4th · 1st on team
2014-03-22 Meet results → Men's 1500 Meters 4:03.92 4th · 1st on team SR
2014-03-07 Meet results → Men's 1500 Meters 4:10.25 1st · 1st on team SR

2013 TF

Texas-Tyler (TX) · Grade JR-3

Date Meet Event Result Place Rating Difficulty PR/SR Flags
2013-04-26 Meet results → Men's 3000 Steeplechase 10:21.56 1st · 1st on team
2013-04-26 Meet results → Men's 800 Meters 2:03.06 4th · 3rd on team
2013-04-26 Meet results → Men's 1500 Meters 4:00.91 1st · 1st on team PR SR
2013-04-20 Meet results → Men 1500m Run Evening 4:07.84 7th · 1st on team ★PR SR
2013-04-12 Meet results → Men's 3000 Steeplechase 9:58.4 1st · 1st on team ★PR SR
2013-04-06 Meet results → Men's 1500 Meters 4:04.47 8th · 1st on team
2013-04-06 Meet results → Men's 5000 Meters 15:43.35 12th · 1st on team ★PR SR
2013-03-29 Meet results → Men's 1500 Meters 4:02.34 3rd · 1st on team PR SR
2013-03-29 Meet results → Men's 800 Meters 2:01.71 17th · 2nd on team
2013-03-22 Meet results → Men's 1500 Meters 4:03.01 7th · 1st on team PR SR
2013-03-08 Meet results → Men's 5000 Meters 15:52.26 1st · 1st on team SR
2013-03-08 Meet results → Men's 1500 Meters 4:08.77 1st · 1st on team PR SR
2013-03-02 Meet results → Men's 3000 Steeplechase 10:11.75 1st · 1st on team PR SR
2013-03-02 Meet results → Men's 800 Meters 1:58.86 3rd · 2nd on team SR

2012 TF 109.3

Texas-Tyler (TX) · Grade SO-2

Date Meet Event Result Place Rating Difficulty PR/SR Flags
2012-05-10 Meet results → Men's 800 Meters 2:00.14 3rd · 1st on team
2012-05-04 Arkansas Twilight 800m 1:57.07 18th · 1st on team 108.7 -0.038
2012-04-27 Meet results → Men's 800 Meters 1:54.13 1st · 1st on team ★PR SR
2012-04-27 Meet results → Men's 5000 Meters 16:37.32 4th · 1st on team
2012-04-27 Meet results → Men's 3000 Steeplechase 10:19.13 2nd · 2nd on team
2012-04-21 Michael Johnson/Dr. Pepper Classic 800m 1:55.76 4th · 1st on team 109.9 -0.037 SR RSR
2012-04-13 Meet results → Men's 5000 Meters 16:02.78 4th · 2nd on team
2012-04-13 Meet results → Men's 800 Meters 1:56.53 2nd · 1st on team SR
2012-04-06 Meet results → Men's 800 Meters 1:58.63 7th · 1st on team
2012-03-24 Meet results → Men's 800 Meters 1:57.31 16th · 1st on team SR
2012-03-03 Meet results → Men's 5000 Meters 15:49.79 3rd · 2nd on team PR SR
2012-03-03 Meet results → Men's 800 Meters 2:05.06 4th · 1st on team SR
2012-02-24 Meet results → Men's 3000 Steeplechase 10:14.14 1st · 1st on team PR SR
2012-02-24 Meet results → Men's 5000 Meters 16:05.16 6th · 2nd on team PR SR

2011 TF 108.6

UT Tyler (TX) · Grade Fr

Date Meet Event Result Place Rating Difficulty PR/SR Flags
2011-05-06 Arkansas Twilight 800m 1:54.55 21st · 1st on team 111.1 -0.038 ★PR R SR RSR
2011-04-29 Meet results → Men's 800 Meters 1:56.34 1st · 1st on team
2011-04-23 Michael Johnson/Dr Pepper Classic 800m 1:57.09 4th · 1st on team 109.2 -0.032
2011-04-16 Lon Morris Relays 400m 52.89 13th · 3rd on team -0.042 ★PR SR
2011-04-02 Meet results → Men's 800 Meters 1:54.35 5th · 1st on team PR SR
2011-03-26 Meet results → Men's 1500 Meters 4:16.83 7th · 3rd on team PR SR
2011-03-26 Meet results → Men's 800 Meters 2:03.18 4th · 2nd on team PR SR
2011-03-19 Rhodes Open 800m 1:56.1 2nd · 1st on team 109.6 -0.034 PR R SR RSR
2011-03-12 LMC Invitational 800m 1:57.38 2nd · 1st on team 108.2 -0.042 PR R SR RSR
2011-02-11 UT Tyler/Lon Morris/Texas Wesleyan Tri-Meet 800m 2:00.85 7th · 4th on team 104.9 -0.041 PR SR RSR
2011-01-14 Meet results → Men's 400 Meters 55.26 29th · 2nd on team ★PR SR
2011-01-14 Meet results → Men's 800 Meters 2:05.73 18th · 3rd on team PR SR